Time;durP1;ratioP1;P1;durP2;ratioP2;P2;SDS_P1;SDS_P2;PMS_P1;PMS_P2;Temp;Humidity;BMP_temperature;BMP_pressure;BME280_temperature;BME280_humidity;BME280_pressure;Samples;Min_cycle;Max_cycle;Signal;HPM_P1;HPM_P2
2023/06/26 00:01:20;;;;;;;9.63;7.95;;;19.40;99.90;;;;;;4992093;28;20199;-36
2023/06/26 00:03:47;;;;;;;8.98;7.95;;;19.40;99.90;;;;;;4986607;28;20183;-31
2023/06/26 00:06:13;;;;;;;8.40;7.28;;;19.30;99.90;;;;;;5001740;28;20187;-33
2023/06/26 00:08:39;;;;;;;8.20;7.40;;;19.30;99.90;;;;;;4990634;28;21158;-32
2023/06/26 00:11:05;;;;;;;8.85;7.93;;;19.20;99.90;;;;;;4996346;28;20187;-35
2023/06/26 00:13:31;;;;;;;8.32;7.45;;;19.20;99.90;;;;;;4982477;28;20191;-31
2023/06/26 00:15:57;;;;;;;9.80;7.85;;;19.10;99.90;;;;;;4995507;28;20219;-37
2023/06/26 00:18:23;;;;;;;8.05;7.25;;;19.10;99.90;;;;;;5007144;28;20202;-32
2023/06/26 00:20:49;;;;;;;8.63;7.75;;;19.10;99.90;;;;;;5007926;28;20206;-32
2023/06/26 00:23:17;;;;;;;8.45;7.57;;;19.10;99.90;;;;;;4993889;28;20183;-31
2023/06/26 00:25:43;;;;;;;8.35;7.05;;;19.00;99.90;;;;;;4984709;28;20298;-32
2023/06/26 00:28:09;;;;;;;9.23;7.38;;;18.90;99.90;;;;;;5007471;28;20202;-33
2023/06/26 00:30:37;;;;;;;9.43;7.80;;;19.00;99.90;;;;;;5007112;28;20179;-31
2023/06/26 00:33:03;;;;;;;8.80;7.90;;;18.90;99.90;;;;;;5003517;28;20241;-34
2023/06/26 00:35:31;;;;;;;9.88;8.25;;;18.80;99.90;;;;;;5006421;28;20188;-31
2023/06/26 00:37:56;;;;;;;9.75;8.02;;;18.80;99.90;;;;;;4993426;28;20206;-36
2023/06/26 00:40:22;;;;;;;8.38;7.57;;;18.80;99.90;;;;;;4993659;28;20206;-31
2023/06/26 00:42:48;;;;;;;10.50;8.18;;;18.80;99.90;;;;;;4993875;28;20313;-32
2023/06/26 00:45:14;;;;;;;9.57;7.68;;;18.80;99.90;;;;;;5014156;28;20270;-33
2023/06/26 00:47:40;;;;;;;10.73;8.25;;;18.70;99.90;;;;;;4990640;28;20238;-35
2023/06/26 00:50:06;;;;;;;8.77;7.88;;;18.60;99.90;;;;;;4985504;28;20184;-33
2023/06/26 00:52:32;;;;;;;9.32;7.93;;;18.50;99.90;;;;;;4993580;28;20191;-34
2023/06/26 00:54:59;;;;;;;10.57;8.43;;;18.40;99.90;;;;;;5007328;28;20183;-32
2023/06/26 00:57:25;;;;;;;9.13;8.10;;;18.40;99.90;;;;;;5002118;28;20239;-31
2023/06/26 00:59:53;;;;;;;11.35;8.32;;;18.30;99.90;;;;;;4990393;28;20707;-34
2023/06/26 01:02:21;;;;;;;9.50;8.18;;;18.30;99.90;;;;;;5004410;28;20343;-35
2023/06/26 01:04:51;;;;;;;9.35;8.05;;;18.30;99.90;;;;;;4989204;28;20220;-35
2023/06/26 01:07:19;;;;;;;10.00;7.55;;;18.30;99.90;;;;;;5009518;28;20230;-33
2023/06/26 01:09:49;;;;;;;11.30;8.30;;;18.20;99.90;;;;;;5009593;28;20183;-32
2023/06/26 01:12:15;;;;;;;8.82;7.93;;;18.20;99.90;;;;;;4978418;28;20184;-36
2023/06/26 01:14:41;;;;;;;8.77;7.78;;;18.20;99.90;;;;;;4998223;28;20172;-32
2023/06/26 01:17:11;;;;;;;8.88;7.82;;;18.20;99.90;;;;;;4993021;28;20301;-36
2023/06/26 01:19:38;;;;;;;8.80;7.88;;;18.10;99.90;;;;;;4984888;28;20198;-36
2023/06/26 01:22:26;;;;;;;9.10;8.18;;;18.10;99.90;;;;;;4995896;28;20277;-38
2023/06/26 01:25:04;;;;;;;10.20;8.15;;;18.10;99.90;;;;;;5019872;28;20218;-32
2023/06/26 01:27:34;;;;;;;9.40;8.38;;;18.10;99.90;;;;;;5012697;28;20203;-36
2023/06/26 01:30:03;;;;;;;9.48;8.48;;;18.10;99.90;;;;;;4997043;28;20184;-32
2023/06/26 01:32:31;;;;;;;9.02;7.85;;;18.00;99.90;;;;;;4995362;28;20186;-33
2023/06/26 01:34:59;;;;;;;10.38;8.02;;;17.90;99.90;;;;;;4998637;28;20313;-37
2023/06/26 01:37:27;;;;;;;8.70;7.80;;;17.90;99.90;;;;;;5008345;28;20230;-35
2023/06/26 01:39:53;;;;;;;10.23;8.40;;;17.90;99.90;;;;;;4995650;28;20226;-33
2023/06/26 01:42:18;;;;;;;9.32;8.43;;;17.90;99.90;;;;;;5002119;28;20208;-36
2023/06/26 01:44:46;;;;;;;8.20;7.40;;;17.80;99.90;;;;;;5009814;28;20191;-34
2023/06/26 01:47:20;;;;;;;7.90;7.10;;;17.80;99.90;;;;;;4994757;28;20196;-32
2023/06/26 01:50:06;;;;;;;8.25;7.15;;;17.70;99.90;;;;;;4985644;28;20196;-34
2023/06/26 01:52:41;;;;;;;9.10;7.82;;;17.70;99.90;;;;;;4995408;28;20190;-34
2023/06/26 01:55:33;;;;;;;7.88;7.07;;;17.60;99.90;;;;;;4999641;28;20203;-36
2023/06/26 01:57:59;;;;;;;8.82;7.55;;;17.60;99.90;;;;;;4990138;28;20217;-32
2023/06/26 02:00:26;;;;;;;8.67;7.87;;;17.60;99.90;;;;;;5017616;28;20187;-33
2023/06/26 02:02:52;;;;;;;8.40;7.50;;;17.60;99.90;;;;;;5012823;28;20186;-34
2023/06/26 02:05:18;;;;;;;9.57;7.97;;;17.50;99.90;;;;;;5007858;28;20211;-33
2023/06/26 02:07:44;;;;;;;7.90;7.10;;;17.50;99.90;;;;;;5022706;28;20207;-32
2023/06/26 02:10:10;;;;;;;8.87;7.37;;;17.40;99.90;;;;;;5000563;28;20186;-31
2023/06/26 02:12:36;;;;;;;8.97;7.67;;;17.30;99.90;;;;;;4985910;28;20178;-36
2023/06/26 02:15:04;;;;;;;9.43;7.77;;;17.30;99.90;;;;;;5009227;28;20180;-34
2023/06/26 02:17:30;;;;;;;8.73;7.83;;;17.30;99.90;;;;;;4992802;28;20195;-33
2023/06/26 02:19:56;;;;;;;8.93;8.00;;;17.30;99.90;;;;;;5009046;28;20188;-33
2023/06/26 02:22:22;;;;;;;10.73;8.07;;;17.30;99.90;;;;;;4998841;28;20217;-43
2023/06/26 02:24:48;;;;;;;10.00;8.53;;;17.30;99.90;;;;;;4979656;28;20187;-37
2023/06/26 02:27:14;;;;;;;8.77;7.87;;;17.20;99.90;;;;;;4988301;28;20236;-31
2023/06/26 02:29:41;;;;;;;10.07;8.13;;;17.20;99.90;;;;;;4978843;28;20234;-31
2023/06/26 02:32:08;;;;;;;14.30;8.70;;;17.10;99.90;;;;;;4996634;28;20225;-31
2023/06/26 02:34:34;;;;;;;9.57;7.67;;;17.10;99.90;;;;;;4992695;28;20195;-34
2023/06/26 02:37:01;;;;;;;9.30;8.03;;;17.00;99.90;;;;;;4996770;28;20209;-35
2023/06/26 02:39:27;;;;;;;9.07;7.80;;;17.00;99.90;;;;;;4994769;28;20187;-35
2023/06/26 02:41:53;;;;;;;9.47;8.47;;;17.00;99.90;;;;;;5013843;28;20207;-34
2023/06/26 02:44:21;;;;;;;10.33;8.47;;;17.00;99.90;;;;;;4995814;28;20201;-36
2023/06/26 02:46:47;;;;;;;8.83;7.93;;;16.90;99.90;;;;;;5000460;28;20196;-32
2023/06/26 02:49:13;;;;;;;8.23;7.40;;;16.90;99.90;;;;;;4995501;28;20179;-35
2023/06/26 02:51:39;;;;;;;9.80;8.77;;;16.90;99.90;;;;;;4995473;28;20332;-33
2023/06/26 02:54:12;;;;;;;10.60;8.37;;;16.90;99.90;;;;;;5006884;28;20191;-32
2023/06/26 02:56:39;;;;;;;11.10;8.83;;;16.90;99.90;;;;;;5000571;28;20183;-32
2023/06/26 02:59:05;;;;;;;9.83;8.47;;;16.90;99.90;;;;;;4994936;28;20183;-32
2023/06/26 03:01:31;;;;;;;10.33;8.67;;;17.00;99.90;;;;;;4992670;28;20229;-31
2023/06/26 03:03:57;;;;;;;10.03;8.67;;;16.90;99.90;;;;;;5004635;28;20261;-32
2023/06/26 03:06:23;;;;;;;9.33;8.43;;;16.90;99.90;;;;;;5003191;28;20206;-31
2023/06/26 03:08:49;;;;;;;9.83;8.53;;;16.90;99.90;;;;;;4991708;28;20188;-32
2023/06/26 03:11:15;;;;;;;8.73;7.83;;;16.90;99.90;;;;;;4997899;28;20295;-32
2023/06/26 03:13:41;;;;;;;9.40;8.37;;;16.90;99.90;;;;;;5002905;28;20270;-34
2023/06/26 03:16:06;;;;;;;9.57;7.73;;;16.90;99.90;;;;;;5010145;28;20258;-33
2023/06/26 03:18:33;;;;;;;10.57;8.03;;;16.70;99.90;;;;;;4985429;28;20214;-32
2023/06/26 03:20:59;;;;;;;9.57;8.10;;;16.80;99.90;;;;;;5012938;28;20206;-33
2023/06/26 03:23:26;;;;;;;9.57;7.80;;;16.70;99.90;;;;;;4994203;28;20180;-32
2023/06/26 03:25:53;;;;;;;8.60;7.67;;;16.70;99.90;;;;;;4992827;28;20203;-32
2023/06/26 03:28:27;;;;;;;10.43;8.10;;;16.70;99.90;;;;;;5003927;28;20194;-34
2023/06/26 03:30:52;;;;;;;10.63;7.93;;;16.70;99.90;;;;;;4994308;28;20213;-34
2023/06/26 03:33:18;;;;;;;8.90;7.70;;;16.60;99.90;;;;;;5010720;28;20183;-33
2023/06/26 03:35:44;;;;;;;8.57;7.77;;;16.60;99.90;;;;;;5011043;28;20187;-33
2023/06/26 03:38:12;;;;;;;10.27;8.53;;;16.60;99.90;;;;;;4994426;28;20207;-35
2023/06/26 03:40:39;;;;;;;10.93;8.07;;;16.60;99.90;;;;;;5008859;28;20191;-33
2023/06/26 03:43:06;;;;;;;8.70;7.80;;;16.70;99.90;;;;;;5024023;28;20215;-35
2023/06/26 03:45:42;;;;;;;10.10;7.83;;;16.80;99.90;;;;;;4994869;28;20186;-32
2023/06/26 03:48:08;;;;;;;9.70;8.10;;;16.80;99.90;;;;;;4984352;28;20231;-31
2023/06/26 03:50:35;;;;;;;10.27;8.57;;;16.80;99.90;;;;;;4983321;28;20189;-34
2023/06/26 03:53:02;;;;;;;9.60;8.47;;;16.90;99.90;;;;;;4991032;28;20214;-31
2023/06/26 03:55:28;;;;;;;9.40;8.13;;;16.90;99.90;;;;;;5005056;28;20208;-35
2023/06/26 03:57:54;;;;;;;11.03;7.97;;;16.90;99.90;;;;;;4989764;28;20206;-34
2023/06/26 04:00:19;;;;;;;9.43;8.43;;;16.90;99.90;;;;;;5004012;28;20191;-32
2023/06/26 04:02:46;;;;;;;10.60;8.17;;;16.90;99.90;;;;;;5009140;28;20209;-32
2023/06/26 04:05:14;;;;;;;8.43;7.60;;;17.00;99.90;;;;;;4987846;28;20180;-34
2023/06/26 04:07:40;;;;;;;13.00;8.57;;;17.00;99.90;;;;;;5006607;28;20274;-34
2023/06/26 04:10:07;;;;;;;8.03;7.03;;;17.00;99.90;;;;;;5000494;28;20263;-31
2023/06/26 04:12:34;;;;;;;9.63;7.57;;;17.00;99.90;;;;;;4992101;28;20184;-33
2023/06/26 04:14:59;;;;;;;9.00;8.10;;;17.00;99.90;;;;;;4982925;28;20186;-33
2023/06/26 04:17:25;;;;;;;9.27;7.90;;;17.00;99.90;;;;;;4995147;28;20258;-34
2023/06/26 04:19:51;;;;;;;9.00;8.10;;;17.10;99.90;;;;;;4995820;28;20190;-31
2023/06/26 04:22:17;;;;;;;10.50;7.50;;;17.10;99.90;;;;;;4994781;28;20222;-31
2023/06/26 04:24:45;;;;;;;9.03;8.13;;;17.10;99.90;;;;;;4994446;28;20274;-32
2023/06/26 04:27:13;;;;;;;10.13;8.40;;;17.10;99.90;;;;;;4997645;28;20210;-31
2023/06/26 04:29:39;;;;;;;9.63;7.83;;;17.10;99.90;;;;;;5011259;28;20229;-32
2023/06/26 04:32:06;;;;;;;9.23;7.90;;;17.10;99.90;;;;;;4990261;28;20282;-35
2023/06/26 04:34:33;;;;;;;11.53;8.87;;;17.20;99.90;;;;;;5012035;28;20217;-33
2023/06/26 04:36:59;;;;;;;9.43;8.03;;;17.20;99.90;;;;;;4994115;28;20314;-33
2023/06/26 04:39:25;;;;;;;10.83;8.13;;;17.20;99.90;;;;;;5011218;28;20187;-34
2023/06/26 04:41:52;;;;;;;10.73;8.20;;;17.30;99.90;;;;;;5012061;28;20198;-32
2023/06/26 04:44:18;;;;;;;10.73;8.73;;;17.40;99.90;;;;;;5003185;28;20250;-34
2023/06/26 04:46:44;;;;;;;9.73;8.18;;;17.40;99.90;;;;;;5007595;28;20310;-32
2023/06/26 04:49:10;;;;;;;9.37;8.37;;;17.40;99.90;;;;;;5004042;28;20226;-32
2023/06/26 04:51:51;;;;;;;;;;;;;;;;;;;;;
2023/06/26 04:54:33;;;;;;;11.30;9.17;;;17.60;99.90;;;;;;5017128;28;20191;-31
2023/06/26 04:57:07;;;;;;;11.83;9.03;;;17.60;99.90;;;;;;4990642;28;20265;-32
2023/06/26 04:59:51;;;;;;;10.57;8.20;;;17.70;99.90;;;;;;4988577;28;20201;-35
2023/06/26 05:02:26;;;;;;;10.38;8.88;;;17.80;99.90;;;;;;5012137;28;20214;-35
2023/06/26 05:05:08;;;;;;;12.43;8.35;;;17.90;99.90;;;;;;5020463;28;20227;-33
2023/06/26 05:08:23;;;;;;;10.75;8.40;;;18.10;99.90;;;;;;5016568;28;20762;-32
2023/06/26 05:11:00;;;;;;;11.45;8.68;;;18.20;99.90;;;;;;5008645;28;20191;-35
2023/06/26 05:13:34;;;;;;;11.60;8.60;;;18.30;99.90;;;;;;5002576;28;20726;-34
2023/06/26 05:16:05;;;;;;;9.00;8.07;;;18.40;99.90;;;;;;4995853;28;20275;-33
2023/06/26 05:18:35;;;;;;;8.20;7.40;;;18.50;99.90;;;;;;5009682;28;20207;-31
2023/06/26 05:21:04;;;;;;;9.43;7.72;;;18.50;99.90;;;;;;5009843;28;20224;-31
2023/06/26 05:23:36;;;;;;;9.63;8.63;;;18.70;99.90;;;;;;5013321;28;20270;-33
2023/06/26 05:26:05;;;;;;;9.77;7.95;;;18.80;99.90;;;;;;5014642;28;20201;-31
2023/06/26 05:28:38;;;;;;;8.43;7.53;;;18.90;99.90;;;;;;5003755;28;20224;-35
2023/06/26 05:31:09;;;;;;;11.20;8.32;;;19.00;99.90;;;;;;5003670;28;20203;-31
2023/06/26 05:33:42;;;;;;;8.02;7.22;;;19.20;99.90;;;;;;5011981;28;20241;-36
2023/06/26 05:36:28;;;;;;;8.48;7.68;;;19.30;99.90;;;;;;4990800;28;20195;-34
2023/06/26 05:38:58;;;;;;;10.13;8.07;;;19.40;99.90;;;;;;4977357;28;20187;-39
2023/06/26 05:41:28;;;;;;;9.95;7.63;;;19.60;99.90;;;;;;5012716;28;20208;-33
2023/06/26 05:43:58;;;;;;;8.25;7.43;;;19.80;99.90;;;;;;4993579;28;20187;-32
2023/06/26 05:46:32;;;;;;;9.57;7.55;;;19.90;99.90;;;;;;5009760;28;20291;-35
2023/06/26 05:49:05;;;;;;;8.75;7.85;;;20.10;99.90;;;;;;4993461;28;20194;-33
2023/06/26 05:51:44;;;;;;;8.98;7.05;;;20.20;99.90;;;;;;5002389;28;20198;-34
2023/06/26 05:54:15;;;;;;;8.25;7.45;;;20.30;99.90;;;;;;4994778;28;20188;-34
2023/06/26 05:56:55;;;;;;;8.05;7.25;;;20.50;99.90;;;;;;4993396;28;20188;-33
2023/06/26 05:59:39;;;;;;;9.00;7.60;;;20.60;99.90;;;;;;5009699;28;20196;-34
2023/06/26 06:02:14;;;;;;;9.13;8.23;;;20.70;99.90;;;;;;5006492;28;20204;-34
2023/06/26 06:04:57;;;;;;;8.32;7.40;;;20.80;99.90;;;;;;4995030;28;20217;-35
2023/06/26 06:07:41;;;;;;;7.93;7.10;;;20.90;99.90;;;;;;5013377;28;20227;-34
2023/06/26 06:10:11;;;;;;;8.38;7.47;;;21.10;99.90;;;;;;4999136;28;20193;-35
2023/06/26 06:12:54;;;;;;;8.35;7.55;;;21.30;99.90;;;;;;4992432;28;20188;-39
2023/06/26 06:15:26;;;;;;;7.97;7.25;;;21.40;99.90;;;;;;5005203;28;20207;-35
2023/06/26 06:17:53;;;;;;;7.85;7.10;;;21.60;99.90;;;;;;5004712;28;20236;-37
2023/06/26 06:20:26;;;;;;;8.40;7.50;;;21.70;99.90;;;;;;5013899;28;20263;-33
2023/06/26 06:22:55;;;;;;;8.15;7.35;;;21.90;99.90;;;;;;4992686;28;20222;-33
2023/06/26 06:25:40;;;;;;;7.65;6.85;;;22.10;99.90;;;;;;5007705;28;20180;-36
2023/06/26 06:28:16;;;;;;;8.32;6.45;;;22.30;99.90;;;;;;4998118;28;20210;-34
2023/06/26 06:30:55;;;;;;;10.82;7.53;;;22.50;99.90;;;;;;5006551;28;20183;-33
2023/06/26 06:33:29;;;;;;;8.63;7.43;;;22.60;99.90;;;;;;5003753;28;20187;-35
2023/06/26 06:35:58;;;;;;;7.82;7.13;;;22.80;99.90;;;;;;5021162;28;20186;-35
2023/06/26 06:38:32;;;;;;;7.50;6.80;;;22.90;99.90;;;;;;4996068;28;20209;-34
2023/06/26 06:41:01;;;;;;;8.15;7.25;;;23.10;99.90;;;;;;5007858;28;20215;-37
2023/06/26 06:43:38;;;;;;;8.27;7.07;;;23.20;99.90;;;;;;5012201;28;20180;-41
2023/06/26 06:46:14;;;;;;;7.30;6.60;;;23.40;99.90;;;;;;5011719;28;20186;-36
2023/06/26 06:48:48;;;;;;;7.32;6.63;;;23.50;99.90;;;;;;5017867;28;20261;-34
2023/06/26 06:51:15;;;;;;;8.48;7.35;;;23.80;99.90;;;;;;4995549;28;20194;-32
2023/06/26 06:53:47;;;;;;;8.10;6.60;;;23.90;99.90;;;;;;4999423;28;20195;-35
2023/06/26 06:56:13;;;;;;;7.10;6.40;;;24.00;99.90;;;;;;5012001;28;20190;-34
2023/06/26 06:58:42;;;;;;;7.47;6.40;;;24.10;99.90;;;;;;5011578;28;20207;-34
2023/06/26 07:01:11;;;;;;;7.93;6.40;;;24.30;99.90;;;;;;4995453;28;20215;-37
2023/06/26 07:03:37;;;;;;;7.65;6.65;;;24.40;99.90;;;;;;4987217;28;20255;-34
2023/06/26 07:06:03;;;;;;;8.43;6.88;;;24.60;99.90;;;;;;5000183;28;20184;-39
2023/06/26 07:08:29;;;;;;;7.43;6.68;;;24.80;99.90;;;;;;4995121;28;20212;-38
2023/06/26 07:10:58;;;;;;;9.05;6.72;;;24.90;99.90;;;;;;5003387;28;20222;-35
2023/06/26 07:13:24;;;;;;;6.78;6.15;;;25.10;99.90;;;;;;5011571;28;20183;-37
2023/06/26 07:15:50;;;;;;;6.45;5.88;;;25.30;99.90;;;;;;5016778;28;20228;-36
2023/06/26 07:18:16;;;;;;;7.47;5.65;;;25.50;99.90;;;;;;5010435;28;20236;-37
2023/06/26 07:20:42;;;;;;;8.55;6.57;;;25.60;99.90;;;;;;5002022;28;20183;-34
2023/06/26 07:23:08;;;;;;;6.60;5.93;;;25.80;99.90;;;;;;4988327;28;20236;-35
2023/06/26 07:25:35;;;;;;;7.63;6.88;;;25.90;99.90;;;;;;4993772;28;20183;-34
2023/06/26 07:28:01;;;;;;;7.32;6.60;;;26.00;99.90;;;;;;4985919;28;20211;-37
2023/06/26 07:30:27;;;;;;;6.97;6.38;;;26.10;99.90;;;;;;4991551;28;20180;-35
2023/06/26 07:32:52;;;;;;;8.13;6.80;;;26.30;99.90;;;;;;4986520;28;20184;-37
2023/06/26 07:35:18;;;;;;;7.20;6.50;;;26.40;99.90;;;;;;5014993;28;20187;-35
2023/06/26 07:37:44;;;;;;;6.80;6.20;;;26.50;99.90;;;;;;4988786;28;20203;-37
2023/06/26 07:40:11;;;;;;;7.43;6.18;;;26.60;99.90;;;;;;4988909;28;20279;-37
2023/06/26 07:42:36;;;;;;;6.78;6.18;;;26.80;99.90;;;;;;4994706;28;20211;-36
2023/06/26 07:45:09;;;;;;;10.10;6.85;;;26.90;99.90;;;;;;4994577;28;20241;-37
2023/06/26 07:47:36;;;;;;;7.45;6.55;;;27.10;99.90;;;;;;5015019;28;20207;-37
2023/06/26 07:50:03;;;;;;;7.50;6.65;;;27.30;99.90;;;;;;5002667;28;20183;-36
2023/06/26 07:52:30;;;;;;;6.80;6.13;;;27.40;99.90;;;;;;4994181;28;20187;-39
2023/06/26 07:54:56;;;;;;;6.75;6.15;;;27.60;99.90;;;;;;5008755;28;20192;-37
2023/06/26 07:57:22;;;;;;;6.22;5.70;;;27.60;99.90;;;;;;4995471;28;20271;-39
2023/06/26 07:59:48;;;;;;;8.77;6.68;;;27.80;99.90;;;;;;4991479;28;20184;-37
2023/06/26 08:02:14;;;;;;;8.57;6.32;;;28.00;99.90;;;;;;5001444;28;20211;-34
2023/06/26 08:04:39;;;;;;;6.57;5.97;;;28.00;99.90;;;;;;4992309;28;20199;-39
2023/06/26 08:07:06;;;;;;;6.38;5.80;;;28.10;99.90;;;;;;4985365;28;20242;-32
2023/06/26 08:09:32;;;;;;;7.93;6.32;;;28.20;99.90;;;;;;4993718;28;20183;-35
2023/06/26 08:11:58;;;;;;;6.63;6.03;;;28.30;99.90;;;;;;4992785;28;20211;-36
2023/06/26 08:14:24;;;;;;;6.53;5.90;;;28.40;99.90;;;;;;5006568;28;20222;-38
2023/06/26 08:16:50;;;;;;;7.00;6.30;;;28.50;99.90;;;;;;4990947;28;20235;-36
2023/06/26 08:19:16;;;;;;;6.25;5.70;;;28.60;99.90;;;;;;4998708;28;20198;-35
2023/06/26 08:21:43;;;;;;;7.45;6.13;;;28.70;99.90;;;;;;4992392;28;20297;-37
2023/06/26 08:24:10;;;;;;;9.93;6.43;;;28.70;99.90;;;;;;4986866;28;20186;-35
2023/06/26 08:26:36;;;;;;;6.57;6.03;;;28.70;99.90;;;;;;4992770;28;20282;-35
2023/06/26 08:29:07;;;;;;;10.43;6.47;;;28.90;99.90;;;;;;4999938;28;20184;-38
2023/06/26 08:31:34;;;;;;;6.32;5.72;;;29.00;99.90;;;;;;4988758;28;20190;-36
2023/06/26 08:34:02;;;;;;;5.80;5.30;;;29.10;99.90;;;;;;5018334;28;20277;-41
2023/06/26 08:36:27;;;;;;;6.38;5.75;;;29.30;99.90;;;;;;4993997;28;20198;-37
2023/06/26 08:38:53;;;;;;;6.63;5.93;;;29.40;99.90;;;;;;4993195;28;20176;-38
2023/06/26 08:41:19;;;;;;;5.97;5.47;;;29.60;99.90;;;;;;4995325;28;20215;-34
2023/06/26 08:43:45;;;;;;;6.20;5.60;;;29.80;99.90;;;;;;4990522;28;20184;-41
2023/06/26 08:46:11;;;;;;;5.75;5.25;;;29.80;99.90;;;;;;5006629;28;20180;-37
2023/06/26 08:48:39;;;;;;;8.15;5.95;;;29.80;99.90;;;;;;4982091;28;20204;-41
2023/06/26 08:51:11;;;;;;;5.70;5.20;;;29.90;99.90;;;;;;4993794;28;20290;-37
2023/06/26 08:53:42;;;;;;;5.75;5.25;;;30.00;99.90;;;;;;4992232;28;20183;-34
2023/06/26 08:56:09;;;;;;;5.88;5.30;;;30.30;99.90;;;;;;5003799;28;20194;-38
2023/06/26 08:58:37;;;;;;;6.28;5.68;;;30.40;99.90;;;;;;5009124;28;20234;-37
2023/06/26 09:01:05;;;;;;;6.05;5.55;;;30.60;99.90;;;;;;5000868;28;20215;-36
2023/06/26 09:03:32;;;;;;;6.18;5.50;;;30.60;99.90;;;;;;4985658;28;20238;-40
2023/06/26 09:05:58;;;;;;;6.57;5.50;;;30.60;99.90;;;;;;4993420;28;20179;-39
2023/06/26 09:08:24;;;;;;;6.75;5.50;;;30.70;99.90;;;;;;4993125;28;20210;-40
2023/06/26 09:10:51;;;;;;;6.53;5.93;;;30.60;99.90;;;;;;5001840;28;20234;-36
2023/06/26 09:13:18;;;;;;;7.60;5.68;;;30.50;99.90;;;;;;5003684;28;20191;-38
2023/06/26 09:15:45;;;;;;;7.03;5.47;;;30.70;99.90;;;;;;5003923;28;20184;-39
2023/06/26 09:18:12;;;;;;;6.32;5.70;;;31.00;99.90;;;;;;4990520;28;20238;-39
2023/06/26 09:20:38;;;;;;;6.20;5.68;;;31.10;99.90;;;;;;5014541;28;20175;-40
2023/06/26 09:23:05;;;;;;;6.75;6.13;;;31.10;99.90;;;;;;4988227;28;20295;-36
2023/06/26 09:25:31;;;;;;;7.15;6.22;;;31.10;99.90;;;;;;5014395;28;20184;-37
2023/06/26 09:27:57;;;;;;;5.85;5.35;;;31.10;99.90;;;;;;4993759;28;20192;-39
2023/06/26 09:30:23;;;;;;;6.75;5.80;;;31.20;99.90;;;;;;4993609;28;20207;-38
2023/06/26 09:32:50;;;;;;;7.53;5.72;;;31.30;99.90;;;;;;4997682;28;20196;-37
2023/06/26 09:35:17;;;;;;;6.45;5.85;;;31.40;99.90;;;;;;4974100;28;20275;-39
2023/06/26 09:37:43;;;;;;;6.25;5.65;;;31.40;99.50;;;;;;4991233;28;20247;-38
2023/06/26 09:40:09;;;;;;;6.07;5.45;;;31.20;99.80;;;;;;4993180;28;20187;-38
2023/06/26 09:42:35;;;;;;;6.00;5.30;;;31.10;99.50;;;;;;4992327;28;20432;-38
2023/06/26 09:45:02;;;;;;;6.40;5.80;;;31.30;99.90;;;;;;5010335;28;20223;-38
2023/06/26 09:47:30;;;;;;;5.82;5.32;;;31.50;99.80;;;;;;4998952;28;20206;-39
2023/06/26 09:49:56;;;;;;;6.05;5.55;;;31.60;99.40;;;;;;4985253;28;20188;-39
2023/06/26 09:52:27;;;;;;;6.93;5.78;;;31.70;97.40;;;;;;4990103;28;20183;-39
2023/06/26 09:55:08;;;;;;;6.70;5.97;;;31.70;98.40;;;;;;4998573;28;20183;-39
2023/06/26 09:57:36;;;;;;;6.55;5.95;;;31.80;97.50;;;;;;5019449;28;20217;-40
2023/06/26 10:00:04;;;;;;;6.90;6.30;;;31.90;96.70;;;;;;5000152;28;20180;-39
2023/06/26 10:02:38;;;;;;;7.13;5.70;;;31.90;96.10;;;;;;5012375;28;20203;-41
2023/06/26 10:05:06;;;;;;;6.18;5.68;;;32.00;96.30;;;;;;5015897;28;20188;-42
2023/06/26 10:07:35;;;;;;;5.97;5.28;;;32.30;97.30;;;;;;5022186;28;20218;-41
2023/06/26 10:10:05;;;;;;;6.60;5.90;;;32.40;97.00;;;;;;4973282;28;20179;-39
2023/06/26 10:12:33;;;;;;;6.22;5.72;;;32.60;95.60;;;;;;4981380;28;20207;-41
2023/06/26 10:15:01;;;;;;;6.80;5.70;;;32.40;95.30;;;;;;5014679;28;20238;-42
2023/06/26 10:17:36;;;;;;;6.18;5.68;;;32.20;95.90;;;;;;5016786;28;20214;-38
2023/06/26 10:20:05;;;;;;;6.38;5.78;;;32.20;95.60;;;;;;5011173;28;20270;-38
2023/06/26 10:22:45;;;;;;;6.45;5.85;;;32.00;95.80;;;;;;5006707;28;20196;-39
2023/06/26 10:25:19;;;;;;;6.45;5.85;;;31.70;95.60;;;;;;5006677;28;20175;-39
2023/06/26 10:27:52;;;;;;;6.47;5.88;;;31.60;96.10;;;;;;5010230;28;20302;-39
2023/06/26 10:30:26;;;;;;;6.18;5.65;;;31.40;95.90;;;;;;5012506;28;20168;-42
2023/06/26 10:32:53;;;;;;;6.97;5.93;;;31.50;96.20;;;;;;4997984;28;20245;-40
2023/06/26 10:35:19;;;;;;;8.35;5.95;;;31.50;96.40;;;;;;4996191;28;20274;-44
2023/06/26 10:37:50;;;;;;;6.78;5.72;;;31.40;96.70;;;;;;5007137;28;20346;-42
2023/06/26 10:40:26;;;;;;;6.15;5.65;;;31.10;96.90;;;;;;4993249;28;20188;-38
2023/06/26 10:43:05;;;;;;;7.25;6.38;;;31.10;98.20;;;;;;4992908;28;20222;-39
2023/06/26 10:45:33;;;;;;;6.47;5.80;;;31.40;98.30;;;;;;4995566;28;20214;-40
2023/06/26 10:47:58;;;;;;;6.30;5.70;;;31.90;98.00;;;;;;5005000;28;20203;-40
2023/06/26 10:50:25;;;;;;;6.40;5.72;;;32.10;97.90;;;;;;5007850;28;20282;-39
2023/06/26 10:53:09;;;;;;;7.45;6.85;;;31.90;97.30;;;;;;5000407;28;20191;-41
2023/06/26 10:55:37;;;;;;;6.90;6.30;;;31.80;98.00;;;;;;4993269;28;20176;-41
2023/06/26 10:58:03;;;;;;;7.07;6.38;;;32.00;97.70;;;;;;5002907;28;20302;-41
2023/06/26 11:00:28;;;;;;;6.85;6.07;;;32.10;98.20;;;;;;4993442;28;20191;-40
2023/06/26 11:02:55;;;;;;;8.70;6.40;;;32.40;98.30;;;;;;4992134;28;20203;-42
2023/06/26 11:05:26;;;;;;;8.80;6.85;;;32.40;97.60;;;;;;5010505;28;20172;-42
2023/06/26 11:08:07;;;;;;;7.93;7.13;;;32.60;98.00;;;;;;5007225;28;20211;-42
2023/06/26 11:10:54;;;;;;;8.80;6.78;;;32.70;98.40;;;;;;5015438;28;20186;-41
2023/06/26 11:13:22;;;;;;;7.10;6.50;;;32.80;98.30;;;;;;5010134;28;20203;-40
2023/06/26 11:15:50;;;;;;;7.30;6.68;;;32.80;98.60;;;;;;4998034;28;20263;-43
2023/06/26 11:18:19;;;;;;;7.18;6.28;;;32.90;98.60;;;;;;5006882;28;20204;-42
2023/06/26 11:20:46;;;;;;;8.57;6.50;;;33.00;98.70;;;;;;4997832;28;20180;-41
2023/06/26 11:23:19;;;;;;;10.60;7.10;;;33.20;98.40;;;;;;5018825;28;20183;-42
2023/06/26 11:25:51;;;;;;;7.70;6.95;;;33.10;97.20;;;;;;5005964;28;20728;-42
2023/06/26 11:28:18;;;;;;;7.15;6.55;;;33.20;97.50;;;;;;4984200;28;20261;-43
2023/06/26 11:30:45;;;;;;;7.47;6.78;;;33.30;97.70;;;;;;4975583;28;20230;-43
2023/06/26 11:33:11;;;;;;;7.90;7.20;;;33.60;98.10;;;;;;5004314;28;20214;-43
2023/06/26 11:35:38;;;;;;;7.38;6.70;;;33.60;96.70;;;;;;5008347;28;20209;-42
2023/06/26 11:38:04;;;;;;;7.78;7.07;;;33.70;96.90;;;;;;4997054;28;20203;-42
2023/06/26 11:40:35;;;;;;;7.40;6.75;;;33.40;96.40;;;;;;5002735;28;20187;-41
2023/06/26 11:43:03;;;;;;;7.40;6.57;;;32.80;96.70;;;;;;4992112;28;20204;-41
2023/06/26 11:45:30;;;;;;;7.68;6.95;;;32.60;97.30;;;;;;4999027;28;20299;-43
2023/06/26 11:48:00;;;;;;;7.15;6.47;;;32.80;97.50;;;;;;4998080;28;20211;-41
2023/06/26 11:50:27;;;;;;;7.40;6.57;;;32.60;97.10;;;;;;5021075;28;20242;-42
2023/06/26 11:52:54;;;;;;;6.78;6.15;;;32.50;97.60;;;;;;5002103;28;20233;-41
2023/06/26 11:55:20;;;;;;;7.07;6.40;;;32.30;97.10;;;;;;4999234;28;20183;-41
2023/06/26 11:57:52;;;;;;;7.40;6.70;;;32.00;98.00;;;;;;4992023;28;20207;-42
2023/06/26 12:00:19;;;;;;;7.68;6.97;;;32.00;98.10;;;;;;4991646;28;20266;-43
2023/06/26 12:02:46;;;;;;;8.18;6.65;;;32.20;98.50;;;;;;5008324;28;20206;-41
2023/06/26 12:05:16;;;;;;;6.82;6.22;;;32.10;98.50;;;;;;4992487;28;20298;-41
2023/06/26 12:07:48;;;;;;;7.10;6.40;;;32.40;97.90;;;;;;4991351;28;20202;-42
2023/06/26 12:10:15;;;;;;;8.20;6.78;;;32.60;97.20;;;;;;4996127;28;20216;-42
2023/06/26 12:12:41;;;;;;;7.63;7.03;;;32.80;97.40;;;;;;4999901;28;20191;-39
2023/06/26 12:15:11;;;;;;;7.97;6.50;;;32.90;96.00;;;;;;4991663;28;20187;-42
2023/06/26 12:17:40;;;;;;;7.20;6.60;;;32.90;96.70;;;;;;4993038;28;20199;-41
2023/06/26 12:20:16;;;;;;;7.10;6.40;;;33.00;96.60;;;;;;4997157;28;20180;-42
2023/06/26 12:22:45;;;;;;;7.55;6.95;;;33.10;96.80;;;;;;5007072;28;20234;-43
2023/06/26 12:25:13;;;;;;;7.28;6.57;;;33.10;96.90;;;;;;5020243;28;20188;-42
2023/06/26 12:27:39;;;;;;;7.45;6.82;;;33.00;96.60;;;;;;4999713;28;20326;-43
2023/06/26 12:30:07;;;;;;;7.50;6.63;;;33.00;97.00;;;;;;5001476;28;20186;-42
2023/06/26 12:32:35;;;;;;;7.55;6.82;;;33.10;97.30;;;;;;4994667;28;20192;-43
2023/06/26 12:35:02;;;;;;;7.47;6.85;;;33.10;97.50;;;;;;4990481;28;20198;-41
2023/06/26 12:37:28;;;;;;;7.20;6.50;;;33.20;97.70;;;;;;5006846;28;20198;-42
2023/06/26 12:39:56;;;;;;;7.10;6.47;;;33.10;98.30;;;;;;4999014;28;20187;-43
2023/06/26 12:42:26;;;;;;;7.05;6.25;;;33.00;98.70;;;;;;4983846;28;20203;-42
2023/06/26 12:44:58;;;;;;;7.80;7.00;;;33.10;98.40;;;;;;5013064;28;20187;-42
2023/06/26 12:47:33;;;;;;;6.70;6.20;;;33.30;98.10;;;;;;5012733;28;20211;-43
2023/06/26 12:50:05;;;;;;;10.77;6.43;;;33.50;98.30;;;;;;4997438;28;20278;-43
2023/06/26 12:52:31;;;;;;;8.02;7.22;;;33.60;98.10;;;;;;5011897;28;20266;-42
2023/06/26 12:54:59;;;;;;;9.15;6.93;;;33.40;97.60;;;;;;4994479;28;20279;-42